Time;durP1;ratioP1;P1;durP2;ratioP2;P2;SDS_P1;SDS_P2;PMS_P1;PMS_P2;Temp;Humidity;BMP_temperature;BMP_pressure;BME280_temperature;BME280_humidity;BME280_pressure;Samples;Min_cycle;Max_cycle;Signal;HPM_P1;HPM_P2
2021/07/09 00:01:44;;;;;;;9.50;3.70;;;;;;;22.04;55.89;101215.92;1662318;85;21116;-75
2021/07/09 00:04:14;;;;;;;8.20;3.98;;;;;;;21.97;56.58;101210.63;1652381;85;21545;-74
2021/07/09 00:06:43;;;;;;;8.03;3.00;;;;;;;21.91;56.91;101208.90;1650174;85;21091;-74
2021/07/09 00:09:10;;;;;;;7.00;3.35;;;;;;;21.82;57.29;101210.35;1660416;85;21100;-74
2021/07/09 00:11:40;;;;;;;4.62;3.27;;;;;;;21.80;57.15;101209.77;1651437;85;21099;-73
2021/07/09 00:14:09;;;;;;;13.10;3.52;;;;;;;21.83;57.35;101207.94;1665085;85;21127;-74
2021/07/09 00:16:38;;;;;;;8.03;3.30;;;;;;;21.80;57.46;101210.31;1656505;85;21143;-76
2021/07/09 00:19:05;;;;;;;4.65;3.12;;;;;;;21.72;57.67;101207.45;1660006;86;21116;-75
2021/07/09 00:21:34;;;;;;;8.93;3.30;;;;;;;21.68;57.82;101211.69;1649231;86;21623;-75
2021/07/09 00:24:02;;;;;;;6.45;3.95;;;;;;;21.64;58.22;101210.53;1666164;84;21067;-74
2021/07/09 00:26:30;;;;;;;4.72;2.92;;;;;;;21.56;58.21;101213.09;1672713;84;21017;-74
2021/07/09 00:28:58;;;;;;;8.43;3.65;;;;;;;21.49;58.68;101206.46;1672231;84;21049;-74
2021/07/09 00:31:29;;;;;;;3.95;2.90;;;;;;;21.45;59.24;101205.81;1674218;84;21053;-75
2021/07/09 00:33:57;;;;;;;5.00;2.67;;;;;;;21.38;60.06;101203.22;1676665;84;21635;-74
2021/07/09 00:36:23;;;;;;;3.55;3.00;;;;;;;21.40;60.07;101209.22;1670665;84;21112;-75
2021/07/09 00:38:50;;;;;;;5.45;1.85;;;;;;;21.45;60.87;101203.91;1683347;84;21037;-74
2021/07/09 00:41:18;;;;;;;4.15;3.33;;;;;;;21.52;60.67;101207.32;1682784;84;21092;-75
2021/07/09 00:43:46;;;;;;;4.85;2.60;;;;;;;21.50;60.57;101207.28;1678495;84;21617;-75
2021/07/09 00:46:13;;;;;;;5.10;3.02;;;;;;;21.40;59.89;101211.93;1682638;84;21070;-75
2021/07/09 00:48:41;;;;;;;3.70;3.40;;;;;;;20.93;60.00;101161.86;1676396;84;21127;-74
2021/07/09 00:51:11;;;;;;;7.78;4.17;;;;;;;21.05;60.45;101207.38;1683263;85;21038;-75
2021/07/09 00:53:39;;;;;;;4.90;3.62;;;;;;;20.88;60.87;101201.84;1676372;84;21595;-75
2021/07/09 00:56:09;;;;;;;4.25;3.15;;;;;;;20.83;61.22;101205.78;1680921;84;21069;-74
2021/07/09 00:58:36;;;;;;;6.20;3.90;;;;;;;20.84;61.16;101205.27;1681341;84;21558;-76
2021/07/09 01:01:02;;;;;;;;;;;;;;;20.86;61.19;101204.50;1683961;83;20950;-75
2021/07/09 01:03:29;;;;;;;3.80;3.43;;;;;;;20.84;61.37;101199.31;1618488;87;20411;-76
2021/07/09 01:05:55;;;;;;;7.10;3.80;;;;;;;20.74;61.53;101202.61;1669528;84;21582;-74
2021/07/09 01:08:21;;;;;;;;;;;;;;;20.73;61.59;101205.02;1663550;84;21061;-75
2021/07/09 01:10:48;;;;;;;5.85;3.98;;;;;;;20.73;61.60;101205.55;1662277;84;20390;-75
2021/07/09 01:13:15;;;;;;;;;;;;;;;20.69;61.90;101198.96;1683255;82;21224;-74
2021/07/09 01:15:43;;;;;;;5.50;3.35;;;;;;;20.75;61.75;101205.60;1660284;84;20147;-74
2021/07/09 01:18:11;;;;;;;5.87;3.17;;;;;;;20.79;61.63;101204.09;1653375;85;21053;-74
2021/07/09 01:20:39;;;;;;;6.28;3.83;;;;;;;20.83;61.82;101199.55;1649527;85;21154;-75
2021/07/09 01:23:07;;;;;;;7.65;2.87;;;;;;;20.80;61.82;101198.14;1651422;82;21109;-72
2021/07/09 01:25:33;;;;;;;6.90;2.90;;;;;;;20.77;61.93;101196.70;1644191;86;21062;-75
2021/07/09 01:28:07;;;;;;;8.18;4.55;;;;;;;20.71;62.49;101193.59;1650862;85;21607;-75
2021/07/09 01:30:36;;;;;;;5.08;3.37;;;;;;;20.66;62.29;101200.77;1648317;85;21049;-75
2021/07/09 01:33:03;;;;;;;4.92;3.33;;;;;;;20.61;62.35;101194.72;1648158;85;21022;-76
2021/07/09 01:35:31;;;;;;;4.40;3.72;;;;;;;20.58;62.49;101193.25;1651599;85;21186;-75
2021/07/09 01:38:03;;;;;;;6.53;3.50;;;;;;;20.60;62.75;101189.80;1651144;85;21002;-74
2021/07/09 01:40:32;;;;;;;9.00;3.70;;;;;;;20.56;62.69;101182.37;1657844;85;21021;-73
2021/07/09 01:43:00;;;;;;;6.12;3.42;;;;;;;20.48;62.85;101189.49;1644540;85;21013;-74
2021/07/09 01:45:26;;;;;;;4.83;3.58;;;;;;;20.39;63.06;101188.46;1656301;83;20990;-74
2021/07/09 01:47:55;;;;;;;8.53;4.08;;;;;;;20.34;63.37;101188.86;1654546;85;21065;-74
2021/07/09 01:50:24;;;;;;;4.67;3.30;;;;;;;20.27;63.49;101182.22;1636060;85;21415;-75
2021/07/09 01:52:52;;;;;;;2.83;2.62;;;;;;;20.23;63.60;101189.97;1641791;85;21025;-73
2021/07/09 01:55:19;;;;;;;4.37;3.47;;;;;;;20.27;64.64;101185.42;1648824;83;20942;-71
2021/07/09 01:57:46;;;;;;;7.10;2.90;;;;;;;20.42;63.82;101188.00;1655930;85;21093;-74
2021/07/09 02:00:18;;;;;;;3.47;2.85;;;;;;;20.51;63.76;101186.30;1639816;82;21081;-75
2021/07/09 02:02:45;;;;;;;4.00;3.65;;;;;;;20.54;64.40;101189.91;1653179;85;21009;-72
2021/07/09 02:05:19;;;;;;;3.10;2.77;;;;;;;20.53;63.49;101186.37;1645851;85;21132;-75
2021/07/09 02:07:48;;;;;;;4.97;3.90;;;;;;;20.48;63.22;101190.31;1656461;85;21093;-75
2021/07/09 02:10:19;;;;;;;3.92;3.50;;;;;;;20.37;63.32;101196.53;1643441;85;21104;-74
2021/07/09 02:12:54;;;;;;;8.73;3.98;;;;;;;20.33;63.51;101190.75;1649907;84;21054;-74
2021/07/09 02:15:28;;;;;;;3.77;3.40;;;;;;;20.46;63.95;101192.97;1642850;85;21043;-74
2021/07/09 02:17:56;;;;;;;3.85;3.37;;;;;;;20.52;64.54;101191.48;1638549;86;21538;-74
2021/07/09 02:20:26;;;;;;;10.00;3.98;;;;;;;20.53;63.79;101188.24;1642028;86;21023;-75
2021/07/09 02:22:57;;;;;;;3.15;2.90;;;;;;;20.48;63.70;101196.27;1645974;84;20967;-75
2021/07/09 02:25:25;;;;;;;5.78;3.72;;;;;;;20.51;64.77;101198.48;1661891;84;21035;-74
2021/07/09 02:27:55;;;;;;;3.52;3.22;;;;;;;20.78;63.56;101197.55;1663362;84;21011;-74
2021/07/09 02:30:26;;;;;;;3.67;3.25;;;;;;;21.09;62.61;101203.12;1667520;84;21496;-75
2021/07/09 02:32:52;;;;;;;5.92;3.90;;;;;;;21.36;62.28;101206.16;1659808;84;21015;-74
2021/07/09 02:35:21;;;;;;;4.47;3.37;;;;;;;21.65;61.67;101203.51;1665768;83;21051;-74
2021/07/09 02:37:49;;;;;;;8.43;3.47;;;;;;;21.99;60.38;101205.51;1671275;84;21034;-74
2021/07/09 02:40:21;;;;;;;8.10;3.40;;;;;;;22.27;58.97;101206.86;1652704;84;21533;-75
2021/07/09 02:42:52;;;;;;;8.50;3.35;;;;;;;22.51;58.53;101218.95;1668890;84;21096;-75
2021/07/09 02:45:22;;;;;;;6.75;3.80;;;;;;;22.78;57.64;101214.20;1657190;84;21030;-74
2021/07/09 02:47:52;;;;;;;8.05;3.50;;;;;;;23.03;56.99;101207.78;1657420;84;21035;-75
2021/07/09 02:50:22;;;;;;;6.58;3.60;;;;;;;23.32;56.25;101213.91;1665428;84;21053;-74
2021/07/09 02:52:50;;;;;;;5.08;3.20;;;;;;;23.61;55.45;101202.01;1662744;84;21018;-74
2021/07/09 02:55:20;;;;;;;3.95;3.65;;;;;;;23.85;54.72;101206.66;1668919;84;21013;-75
2021/07/09 02:57:46;;;;;;;5.78;3.60;;;;;;;24.06;54.07;101204.42;1589146;89;21056;-74
2021/07/09 03:00:17;;;;;;;4.53;3.25;;;;;;;24.40;53.38;101200.64;1591280;86;21044;-75
2021/07/09 03:02:44;;;;;;;10.68;3.42;;;;;;;24.79;52.26;101205.33;1621383;86;21062;-76
2021/07/09 03:05:12;;;;;;;3.70;3.35;;;;;;;25.19;50.50;101205.28;1633658;86;21037;-75
2021/07/09 03:07:39;;;;;;;3.47;3.00;;;;;;;25.66;47.78;101202.22;1629491;86;21630;-75
2021/07/09 03:10:10;;;;;;;6.83;3.08;;;;;;;26.08;47.01;101200.42;1634591;86;21042;-73
2021/07/09 03:12:38;;;;;;;4.30;2.80;;;;;;;26.45;46.08;101202.91;1631301;86;20983;-75
2021/07/09 03:15:08;;;;;;;5.87;3.30;;;;;;;26.79;45.10;101198.25;1634925;86;21603;-75
2021/07/09 03:17:36;;;;;;;5.65;2.52;;;;;;;27.11;44.44;101192.97;1641310;85;22305;-75
2021/07/09 03:20:06;;;;;;;6.65;2.55;;;;;;;27.33;43.45;101200.31;1644880;85;21058;-74
2021/07/09 03:22:32;;;;;;;3.12;1.35;;;;;;;27.56;42.72;101198.02;1646844;85;21550;-74
2021/07/09 03:24:59;;;;;;;6.67;2.58;;;;;;;27.83;40.57;101196.77;1633545;85;21581;-74
2021/07/09 03:27:25;;;;;;;6.55;2.75;;;;;;;28.08;41.65;101199.91;1627486;85;21109;-75
2021/07/09 03:29:52;;;;;;;6.20;2.05;;;;;;;28.28;40.43;101192.89;1641132;85;20994;-74
2021/07/09 03:32:19;;;;;;;3.85;2.20;;;;;;;28.50;40.08;101192.44;1634809;85;21526;-74
2021/07/09 03:34:48;;;;;;;3.60;2.22;;;;;;;28.79;39.26;101194.38;1631880;84;21521;-74
2021/07/09 03:37:15;;;;;;;3.98;2.45;;;;;;;29.02;38.08;101193.30;1631236;85;21045;-74
2021/07/09 03:39:43;;;;;;;5.03;2.22;;;;;;;29.17;37.14;101191.78;1630605;85;21653;-74
2021/07/09 03:42:09;;;;;;;5.58;1.52;;;;;;;29.31;36.90;101192.71;1644313;85;21526;-74
2021/07/09 03:44:37;;;;;;;3.25;1.42;;;;;;;29.51;35.98;101191.61;1641676;84;20983;-76
2021/07/09 03:47:03;;;;;;;2.30;1.45;;;;;;;29.65;35.21;101188.97;1642402;85;21017;-76
2021/07/09 03:49:29;;;;;;;4.33;1.82;;;;;;;29.79;34.72;101191.00;1646861;85;21040;-74
2021/07/09 03:51:55;;;;;;;3.60;1.82;;;;;;;29.96;34.33;101193.22;1648376;85;21573;-76
2021/07/09 03:54:22;;;;;;;5.55;1.55;;;;;;;30.09;33.67;101197.95;1649542;85;21086;-76
2021/07/09 03:56:48;;;;;;;7.03;2.00;;;;;;;30.22;33.67;101197.75;1653043;85;21033;-73
2021/07/09 03:59:14;;;;;;;8.43;1.47;;;;;;;30.33;32.81;101203.91;1635906;84;21092;-74
2021/07/09 04:01:40;;;;;;;9.00;2.50;;;;;;;30.34;33.19;101197.31;1638029;85;21117;-75
2021/07/09 04:04:06;;;;;;;5.83;2.00;;;;;;;30.45;33.06;101198.77;1632089;85;21582;-76
2021/07/09 04:06:32;;;;;;;3.30;1.47;;;;;;;30.60;32.94;101196.30;1627386;86;21589;-76
2021/07/09 04:08:58;;;;;;;3.65;1.32;;;;;;;30.78;32.32;101202.30;1631093;85;21049;-75
2021/07/09 04:11:24;;;;;;;6.03;1.52;;;;;;;30.94;32.17;101197.91;1627740;85;21069;-74
2021/07/09 04:13:50;;;;;;;4.85;1.80;;;;;;;31.00;31.83;101207.69;1635571;85;21470;-74
2021/07/09 04:16:16;;;;;;;6.40;1.65;;;;;;;31.07;32.05;101199.03;1633756;85;21023;-75
2021/07/09 04:18:42;;;;;;;2.98;1.65;;;;;;;31.20;32.01;101200.97;1644355;85;21086;-75
2021/07/09 04:21:08;;;;;;;2.75;1.45;;;;;;;31.30;31.15;101202.69;1639574;85;21658;-75
2021/07/09 04:23:34;;;;;;;2.35;1.05;;;;;;;31.37;31.14;101200.34;1647194;85;21092;-76
2021/07/09 04:26:00;;;;;;;1.65;0.80;;;;;;;31.57;30.59;101199.92;1644532;85;21768;-76
2021/07/09 04:28:26;;;;;;;2.70;1.32;;;;;;;31.55;30.71;101198.05;1644562;86;21182;-76
2021/07/09 04:30:54;;;;;;;10.70;1.17;;;;;;;31.44;30.04;101194.66;1639536;85;21098;-76
2021/07/09 04:33:23;;;;;;;3.08;1.00;;;;;;;31.27;29.99;101195.86;1635287;85;21077;-76
2021/07/09 04:35:51;;;;;;;3.98;1.22;;;;;;;31.23;30.28;101191.53;1633227;85;21175;-75
2021/07/09 04:38:19;;;;;;;3.72;1.02;;;;;;;31.39;30.60;101196.70;1636049;85;21112;-75
2021/07/09 04:40:46;;;;;;;4.08;1.40;;;;;;;31.50;30.78;101195.39;1638436;85;21559;-75
2021/07/09 04:43:12;;;;;;;3.50;0.90;;;;;;;31.68;30.37;101199.69;1642529;85;21088;-77
2021/07/09 04:45:39;;;;;;;7.72;1.55;;;;;;;31.78;31.05;101196.14;1633918;85;21025;-77
2021/07/09 04:48:06;;;;;;;6.87;1.40;;;;;;;31.89;30.89;101199.48;1644374;85;21069;-75
2021/07/09 04:50:34;;;;;;;6.47;1.40;;;;;;;32.06;29.95;101201.59;1649542;85;21030;-75
2021/07/09 04:53:00;;;;;;;2.27;1.02;;;;;;;32.19;29.24;101195.73;1633756;86;21092;-75
2021/07/09 04:55:27;;;;;;;2.20;0.60;;;;;;;32.25;29.74;101194.50;1647292;84;21078;-76
2021/07/09 04:57:53;;;;;;;7.83;1.07;;;;;;;32.36;29.52;101196.41;1634698;85;21053;-75
2021/07/09 05:00:20;;;;;;;6.20;2.65;;;;;;;32.37;29.64;101193.92;1632768;84;21030;-76
2021/07/09 05:02:47;;;;;;;11.45;2.92;;;;;;;32.26;28.74;101194.73;1646413;85;20998;-75
2021/07/09 05:05:15;;;;;;;13.38;4.65;;;;;;;32.00;28.46;101191.22;1649422;85;21041;-76
2021/07/09 05:07:43;;;;;;;16.52;4.58;;;;;;;31.80;29.64;101194.45;1649999;85;21010;-76
2021/07/09 05:10:10;;;;;;;7.95;3.55;;;;;;;31.72;29.20;101197.39;1644673;85;20993;-76
2021/07/09 05:12:37;;;;;;;4.28;2.33;;;;;;;31.59;29.35;101197.67;1643190;85;21066;-77
2021/07/09 05:15:06;;;;;;;15.68;5.12;;;;;;;31.49;29.51;101191.00;1643135;85;21078;-76
2021/07/09 05:17:32;;;;;;;14.65;4.72;;;;;;;31.48;29.94;101202.34;1638794;85;21095;-78
2021/07/09 05:19:58;;;;;;;20.05;5.80;;;;;;;31.60;30.29;101206.17;1649405;85;21557;-78
2021/07/09 05:22:25;;;;;;;22.60;5.17;;;;;;;31.77;29.60;101200.58;1634896;85;21613;-77
2021/07/09 05:24:55;;;;;;;18.77;5.45;;;;;;;31.92;29.94;101202.97;1641907;85;21634;-76
2021/07/09 05:27:27;;;;;;;13.35;4.60;;;;;;;32.08;29.40;101199.87;1634919;85;21033;-79
2021/07/09 05:29:55;;;;;;;17.77;4.58;;;;;;;32.24;29.12;101196.19;1636008;85;21033;-80
2021/07/09 05:32:27;;;;;;;25.45;8.25;;;;;;;32.38;28.50;101193.61;1630165;85;21634;-79
2021/07/09 05:34:55;;;;;;;13.90;3.40;;;;;;;32.36;28.39;101190.89;1633430;84;21101;-78
2021/07/09 05:37:23;;;;;;;12.03;4.83;;;;;;;32.30;27.18;101197.11;1644492;85;21525;-78
2021/07/09 05:39:51;;;;;;;17.05;5.42;;;;;;;32.27;26.95;101196.37;1627731;85;21077;-84
2021/07/09 05:42:17;;;;;;;16.52;4.58;;;;;;;32.37;27.11;101189.78;1629783;85;20998;-80
2021/07/09 05:44:46;;;;;;;13.45;4.95;;;;;;;32.43;27.07;101188.51;1628679;85;21064;-80
2021/07/09 05:47:14;;;;;;;10.95;4.25;;;;;;;32.51;27.12;101185.55;1639078;85;21081;-79
2021/07/09 05:49:41;;;;;;;13.60;4.85;;;;;;;32.54;27.21;101184.92;1623066;86;21416;-79
2021/07/09 05:52:09;;;;;;;19.77;5.53;;;;;;;32.64;26.83;101184.66;1634356;85;21049;-86
2021/07/09 05:54:36;;;;;;;11.95;4.25;;;;;;;32.57;26.29;101180.19;1628557;85;21104;-78
2021/07/09 05:57:04;;;;;;;15.68;4.47;;;;;;;32.56;26.15;101179.90;1637113;85;21128;-80
2021/07/09 05:59:30;;;;;;;8.43;2.65;;;;;;;32.65;25.79;101175.84;1636219;85;21054;-78
2021/07/09 06:01:57;;;;;;;6.85;2.15;;;;;;;32.81;25.71;101176.22;1626345;85;21079;-80
2021/07/09 06:04:24;;;;;;;7.50;2.22;;;;;;;33.03;25.55;101178.09;1647398;85;21100;-78
2021/07/09 06:06:52;;;;;;;7.62;0.60;;;;;;;33.27;25.45;101173.56;1629053;85;21605;-77
2021/07/09 06:09:18;;;;;;;1.47;0.98;;;;;;;33.43;24.75;101167.80;1636303;85;21066;-78
2021/07/09 06:11:45;;;;;;;2.17;0.53;;;;;;;33.60;24.29;101167.56;1631124;83;20978;-87
2021/07/09 06:14:13;;;;;;;10.95;0.70;;;;;;;33.54;24.13;101169.68;1640673;81;21141;-87
2021/07/09 06:16:40;;;;;;;3.17;0.80;;;;;;;33.55;24.37;101173.51;1643581;85;21049;-87
2021/07/09 06:19:06;;;;;;;4.17;0.98;;;;;;;33.68;24.33;101168.16;1639817;86;21081;-88
2021/07/09 06:21:34;;;;;;;4.08;0.72;;;;;;;33.71;24.15;101171.09;1632903;86;21026;-91
2021/07/09 06:24:01;;;;;;;3.65;1.05;;;;;;;33.79;24.37;101169.45;1635306;84;21085;-87
2021/07/09 06:26:27;;;;;;;2.33;0.42;;;;;;;33.84;24.60;101171.27;1641706;86;21082;-86
2021/07/09 06:28:55;;;;;;;4.28;0.30;;;;;;;33.81;24.93;101168.56;1638967;86;21214;-87
2021/07/09 06:31:21;;;;;;;0.75;0.23;;;;;;;33.77;24.86;101161.26;1635904;86;21049;-86
2021/07/09 06:33:47;;;;;;;0.95;0.30;;;;;;;33.73;25.40;101164.66;1638204;86;20999;-84
2021/07/09 06:36:13;;;;;;;2.22;0.20;;;;;;;33.63;23.93;101158.06;1646681;86;21067;-86
2021/07/09 06:38:42;;;;;;;1.65;0.30;;;;;;;33.48;23.03;101162.12;1629633;84;21109;-83
2021/07/09 06:41:08;;;;;;;3.02;0.40;;;;;;;33.38;23.71;101165.75;1672219;82;21030;-81
2021/07/09 06:43:34;;;;;;;1.50;0.23;;;;;;;33.41;24.01;101166.50;1669387;83;20982;-85
2021/07/09 06:46:00;;;;;;;4.78;0.30;;;;;;;33.44;23.94;101174.95;1658032;83;21092;-83
2021/07/09 06:48:26;;;;;;;1.15;0.17;;;;;;;33.31;24.02;101171.77;1672915;84;21045;-83
2021/07/09 06:50:52;;;;;;;0.93;0.30;;;;;;;33.21;24.44;101166.53;1663391;85;22153;-82
2021/07/09 06:53:18;;;;;;;0.42;0.20;;;;;;;33.18;24.21;101166.63;1665038;84;21571;-82
2021/07/09 06:55:44;;;;;;;1.20;0.20;;;;;;;33.20;24.05;101163.55;1671089;83;21088;-81
2021/07/09 06:58:11;;;;;;;0.42;0.20;;;;;;;33.24;24.21;101161.19;1677048;84;20983;-80
2021/07/09 07:00:38;;;;;;;1.22;0.30;;;;;;;33.31;24.13;101156.58;1675519;83;21550;-81
2021/07/09 07:03:07;;;;;;;3.70;0.42;;;;;;;33.42;24.25;101162.03;1670862;84;21014;-84
2021/07/09 07:05:34;;;;;;;5.33;0.25;;;;;;;33.36;24.07;101161.38;1674619;83;21140;-84
2021/07/09 07:08:14;;;;;;;3.10;0.10;;;;;;;33.30;23.52;101171.52;1700925;83;21524;-83
2021/07/09 07:10:41;;;;;;;0.50;0.20;;;;;;;33.33;22.49;101170.30;1706544;83;21117;-83
2021/07/09 07:13:07;;;;;;;0.65;0.47;;;;;;;33.18;22.92;101164.44;1720940;82;21050;-81
2021/07/09 07:15:33;;;;;;;0.20;0.10;;;;;;;33.09;22.78;101165.75;1701367;83;21093;-82
2021/07/09 07:18:02;;;;;;;4.62;0.20;;;;;;;33.01;22.65;101163.22;1707604;82;21036;-80
2021/07/09 07:20:29;;;;;;;9.05;0.47;;;;;;;33.07;22.54;101164.69;1695878;82;21080;-85
2021/07/09 07:22:57;;;;;;;3.25;0.15;;;;;;;33.16;22.31;101155.89;1693011;82;21069;-83
2021/07/09 07:25:24;;;;;;;3.20;0.42;;;;;;;33.18;22.47;101145.91;1696967;83;21150;-81
2021/07/09 07:27:50;;;;;;;1.32;0.15;;;;;;;33.11;22.92;101151.09;1692505;83;21042;-83
2021/07/09 07:31:59;;;;;;;0.60;0.10;;;;;;;32.86;23.15;101158.95;1816907;78;22998;-83
2021/07/09 07:34:30;;;;;;;0.30;0.10;;;;;;;32.74;22.75;101160.94;1756529;79;21774;-84
2021/07/09 07:36:56;;;;;;;1.90;0.20;;;;;;;32.68;22.71;101151.19;1726319;81;20966;-83
2021/07/09 07:39:21;;;;;;;1.42;0.20;;;;;;;32.58;22.83;101145.36;1704054;83;21471;-82
2021/07/09 07:41:48;;;;;;;0.40;0.20;;;;;;;32.54;22.97;101138.02;1732536;81;21061;-85
2021/07/09 07:44:14;;;;;;;1.10;0.20;;;;;;;32.48;23.02;101133.77;1729017;81;21125;-84
2021/07/09 07:46:40;;;;;;;1.10;0.30;;;;;;;32.36;23.13;101146.21;1748960;81;21112;-84
2021/07/09 07:49:06;;;;;;;2.47;0.20;;;;;;;32.07;23.65;101120.48;1752854;80;21539;-82
2021/07/09 07:51:33;;;;;;;1.82;0.15;;;;;;;31.81;24.13;101143.70;1752683;80;21491;-83
2021/07/09 07:53:59;;;;;;;0.57;0.20;;;;;;;31.48;24.31;101137.03;1752422;81;21112;-83
2021/07/09 07:56:27;;;;;;;3.75;0.23;;;;;;;31.17;24.90;101130.78;1713340;80;21102;-82
2021/07/09 07:58:53;;;;;;;1.15;0.20;;;;;;;30.89;25.56;101129.16;1672933;84;21073;-82
2021/07/09 08:01:22;;;;;;;0.42;0.10;;;;;;;30.63;25.76;101145.63;1687454;82;21062;-82
2021/07/09 08:03:49;;;;;;;1.00;0.25;;;;;;;30.46;25.64;101142.65;1695330;83;21104;-84
2021/07/09 08:06:14;;;;;;;1.57;0.30;;;;;;;30.31;25.91;101136.84;1668904;83;21073;-84
2021/07/09 08:08:43;;;;;;;6.60;0.23;;;;;;;30.17;26.06;101129.09;1656167;85;22513;-82
2021/07/09 08:11:11;;;;;;;4.00;0.40;;;;;;;30.05;26.36;101123.52;1669485;84;21323;-82
2021/07/09 08:13:39;;;;;;;0.93;0.20;;;;;;;29.95;26.74;101120.95;1627755;86;21168;-82
2021/07/09 08:16:11;;;;;;;1.75;0.33;;;;;;;29.82;27.11;101132.69;1632217;86;21025;-86
2021/07/09 08:18:38;;;;;;;2.47;0.20;;;;;;;29.69;27.24;101113.08;1627561;86;21813;-82
2021/07/09 08:21:04;;;;;;;5.45;0.30;;;;;;;29.62;27.63;101120.06;1633000;86;21071;-83
2021/07/09 08:23:33;;;;;;;4.53;0.37;;;;;;;29.64;27.62;101113.72;1645180;86;21044;-82
2021/07/09 08:25:59;;;;;;;4.00;0.20;;;;;;;29.69;27.75;101126.81;1636705;85;21035;-81
2021/07/09 08:28:27;;;;;;;0.80;0.17;;;;;;;29.58;27.61;101092.94;1616544;87;21042;-84
2021/07/09 08:30:54;;;;;;;3.52;0.30;;;;;;;29.74;27.50;101117.70;1602351;87;21123;-81
2021/07/09 08:33:21;;;;;;;13.05;11.83;;;;;;;29.68;27.63;101121.05;1638553;85;20993;-83
2021/07/09 08:35:47;;;;;;;2.67;0.55;;;;;;;29.61;28.05;101110.18;1644482;85;21064;-83
2021/07/09 08:38:14;;;;;;;1.95;0.30;;;;;;;29.50;28.13;101102.67;1649381;85;21033;-84
2021/07/09 08:40:40;;;;;;;2.80;0.20;;;;;;;29.42;28.37;101112.39;1634042;85;21109;-81
2021/07/09 08:43:07;;;;;;;2.10;0.30;;;;;;;29.45;28.15;101102.17;1654972;81;21014;-81
2021/07/09 08:45:33;;;;;;;1.10;0.30;;;;;;;29.40;28.47;101094.56;1673377;84;21102;-81
2021/07/09 08:48:01;;;;;;;1.25;0.37;;;;;;;29.32;28.83;101096.05;1638460;87;21150;-83
2021/07/09 08:50:28;;;;;;;3.30;0.20;;;;;;;29.26;29.11;101088.45;1664585;84;21057;-82
2021/07/09 08:52:54;;;;;;;8.10;0.80;;;;;;;29.31;29.54;101085.64;1650064;84;21054;-80
2021/07/09 08:55:20;;;;;;;2.25;0.33;;;;;;;29.39;29.48;101080.03;1654676;84;21053;-81
2021/07/09 08:57:48;;;;;;;3.08;0.20;;;;;;;29.38;29.49;101080.32;1667425;84;21037;-82
2021/07/09 09:00:27;;;;;;;0.40;0.30;;;;;;;29.39;29.42;101091.58;1659896;84;21633;-82
2021/07/09 09:02:55;;;;;;;0.88;0.30;;;;;;;29.38;29.34;101092.67;1665690;83;21081;-81
2021/07/09 09:05:29;;;;;;;1.85;0.30;;;;;;;29.33;29.37;101077.64;1654418;83;21159;-80
2021/07/09 09:08:01;;;;;;;0.23;0.20;;;;;;;29.34;29.42;101084.78;1669943;83;21037;-81
2021/07/09 09:10:49;;;;;;;0.28;0.28;;;;;;;29.30;29.34;101081.24;1677547;83;21570;-83
2021/07/09 09:13:23;;;;;;;2.25;0.40;;;;;;;29.27;29.23;101087.87;1616613;86;21653;-81
2021/07/09 09:16:12;;;;;;;1.57;0.30;;;;;;;29.16;29.35;101075.41;1608781;87;21078;-81
2021/07/09 09:18:45;;;;;;;2.30;0.50;;;;;;;29.07;29.73;101082.10;1586685;88;21073;-84
2021/07/09 09:21:17;;;;;;;0.72;0.30;;;;;;;28.97;30.15;101076.20;1603443;88;21040;-79
2021/07/09 09:23:52;;;;;;;0.98;0.50;;;;;;;28.92;30.36;101075.69;1662629;84;21005;-82
2021/07/09 09:26:43;;;;;;;2.55;0.40;;;;;;;28.92;30.06;101070.20;1679720;84;21153;-84
2021/07/09 09:29:29;;;;;;;1.67;0.30;;;;;;;28.88;30.22;101057.38;1678098;83;21085;-78
2021/07/09 09:32:03;;;;;;;3.67;0.20;;;;;;;28.84;30.37;101078.26;1680317;84;21627;-80
2021/07/09 09:34:47;;;;;;;1.90;0.70;;;;;;;28.81;31.00;101096.70;1671538;81;21073;-82
2021/07/09 09:37:23;;;;;;;2.33;0.30;;;;;;;28.83;31.00;101069.22;1645368;84;21171;-81
2021/07/09 09:39:50;;;;;;;1.22;0.33;;;;;;;28.83;30.90;101093.91;1668888;84;21106;-82
2021/07/09 09:42:23;;;;;;;3.27;0.50;;;;;;;28.82;30.99;101064.86;1633663;86;21026;-82
2021/07/09 09:45:05;;;;;;;7.03;0.50;;;;;;;28.84;30.97;101060.42;1658426;84;21080;-82
2021/07/09 09:47:36;;;;;;;1.40;0.20;;;;;;;28.87;31.02;101062.03;1636258;85;21109;-82
2021/07/09 09:50:08;;;;;;;2.00;0.30;;;;;;;28.93;31.18;101058.66;1649291;85;21662;-82
2021/07/09 09:52:43;;;;;;;2.70;0.45;;;;;;;28.97;31.36;101062.48;1647048;85;21517;-82
2021/07/09 09:55:31;;;;;;;2.65;0.40;;;;;;;28.92;31.27;101052.93;1648126;85;21033;-82
2021/07/09 09:58:11;;;;;;;1.50;0.30;;;;;;;28.85;31.42;101048.36;1659410;84;21567;-83
2021/07/09 10:00:40;;;;;;;5.45;0.40;;;;;;;28.90;31.38;101049.67;1669339;84;21042;-82
2021/07/09 10:03:07;;;;;;;1.15;0.30;;;;;;;28.95;31.08;101060.55;1678444;83;21226;-84
2021/07/09 10:05:43;;;;;;;3.80;0.40;;;;;;;28.91;31.13;101053.50;1680918;83;21108;-86
2021/07/09 10:08:15;;;;;;;0.45;0.20;;;;;;;28.90;30.95;101050.48;1685977;83;21065;-83
2021/07/09 10:10:44;;;;;;;1.30;0.23;;;;;;;28.96;30.64;101047.67;1674349;83;21090;-82
2021/07/09 10:13:16;;;;;;;9.08;0.50;;;;;;;29.00;30.62;101046.78;1645596;84;21165;-84
2021/07/09 10:15:47;;;;;;;3.45;0.35;;;;;;;29.02;30.75;101056.09;1641562;86;21069;-84
2021/07/09 10:18:15;;;;;;;1.27;0.25;;;;;;;29.05;31.03;101061.81;1646615;86;21000;-84
2021/07/09 10:20:44;;;;;;;0.65;0.25;;;;;;;29.08;30.86;101050.78;1649515;85;21123;-84
2021/07/09 10:23:14;;;;;;;0.72;0.37;;;;;;;29.09;30.89;101040.08;1643127;86;21004;-83
2021/07/09 10:25:40;;;;;;;2.37;0.20;;;;;;;29.11;30.88;101042.78;1611446;87;21041;-83
2021/07/09 10:28:10;;;;;;;2.17;0.30;;;;;;;29.17;30.75;101038.06;1636437;86;21076;-83
2021/07/09 10:30:42;;;;;;;1.52;0.30;;;;;;;29.19;30.85;101036.40;1607543;87;21608;-84
2021/07/09 10:33:34;;;;;;;0.55;0.20;;;;;;;29.22;30.96;101034.44;1585555;87;21007;-81
2021/07/09 10:36:07;;;;;;;1.20;0.30;;;;;;;29.25;30.96;101027.80;1582496;85;21112;-85
2021/07/09 10:38:40;;;;;;;0.88;0.40;;;;;;;29.29;30.58;101023.34;1605694;87;21020;-83
2021/07/09 10:41:19;;;;;;;4.10;0.30;;;;;;;29.33;30.47;101015.87;1608948;85;21119;-78
2021/07/09 10:44:15;;;;;;;1.90;0.78;;;;;;;29.36;30.58;101024.89;1624996;87;21081;-81
2021/07/09 10:46:43;;;;;;;1.05;0.40;;;;;;;29.39;30.38;101005.89;1607006;87;21259;-83
2021/07/09 10:49:12;;;;;;;1.55;0.30;;;;;;;29.44;30.24;101021.45;1614574;87;21134;-82
2021/07/09 10:51:53;;;;;;;2.80;1.05;;;;;;;29.45;30.19;101017.61;1616094;87;21152;-82
2021/07/09 10:54:30;;;;;;;3.70;0.30;;;;;;;29.42;30.37;101012.17;1622012;87;21136;-84
2021/07/09 10:57:21;;;;;;;1.25;0.37;;;;;;;29.38;30.48;100992.45;1618439;86;20956;-84
2021/07/09 11:00:23;;;;;;;7.12;0.62;;;;;;;29.29;30.69;100986.28;1641071;86;21051;-83
2021/07/09 11:03:04;;;;;;;1.67;0.40;;;;;;;29.28;30.70;100995.62;1641107;86;21120;-84
2021/07/09 11:05:51;;;;;;;1.98;0.60;;;;;;;29.20;30.51;101000.42;1637165;86;21355;-83
2021/07/09 11:08:37;;;;;;;1.32;0.35;;;;;;;29.15;30.55;100986.77;1644311;86;21541;-85
2021/07/09 11:11:16;;;;;;;1.85;0.23;;;;;;;29.17;30.54;100994.70;1591212;88;21110;-82
2021/07/09 11:13:51;;;;;;;1.37;0.42;;;;;;;29.16;30.62;100980.71;1654753;85;21074;-82
2021/07/09 11:16:27;;;;;;;1.00;0.20;;;;;;;29.10;30.81;100987.64;1651926;86;21779;-83
2021/07/09 11:19:07;;;;;;;0.68;0.30;;;;;;;29.12;30.82;101002.41;1656673;85;21081;-82
2021/07/09 11:21:44;;;;;;;0.85;0.28;;;;;;;29.14;30.65;100992.02;1642686;85;21066;-81
2021/07/09 11:24:21;;;;;;;1.37;0.30;;;;;;;29.15;30.73;100991.45;1653387;86;21035;-82
2021/07/09 11:26:58;;;;;;;0.45;0.20;;;;;;;29.17;30.66;100973.55;1634036;86;21042;-82
2021/07/09 11:29:41;;;;;;;2.90;0.30;;;;;;;29.23;30.65;100965.49;1643816;86;21495;-82
2021/07/09 11:32:17;;;;;;;2.92;0.40;;;;;;;29.23;30.88;100968.23;1596869;88;21193;-82
2021/07/09 11:34:48;;;;;;;2.10;0.45;;;;;;;29.27;30.69;100978.06;1645242;85;21154;-84
2021/07/09 11:37:21;;;;;;;0.75;0.25;;;;;;;29.34;30.50;100984.56;1614763;86;21085;-80